Time;durP1;ratioP1;P1;durP2;ratioP2;P2;SDS_P1;SDS_P2;PMS_P1;PMS_P2;Temp;Humidity;BMP_temperature;BMP_pressure;BME280_temperature;BME280_humidity;BME280_pressure;Samples;Min_cycle;Max_cycle;Signal;HPM_P1;HPM_P2
2021/04/21 00:00:47;;;;;;;9.40;7.80;;;;;;;;;;4980279;28;20193;-86
2021/04/21 00:03:13;;;;;;;9.53;8.53;;;;;;;;;;4996233;28;20229;-85
2021/04/21 00:05:39;;;;;;;9.23;8.33;;;;;;;;;;4980266;28;20225;-85
2021/04/21 00:08:07;;;;;;;9.53;8.63;;;;;;;;;;4996542;28;20260;-86
2021/04/21 00:10:34;;;;;;;10.03;8.43;;;;;;;;;;4980084;28;20213;-85
2021/04/21 00:13:01;;;;;;;11.87;8.57;;;;;;;;;;4980125;28;20557;-86
2021/04/21 00:15:27;;;;;;;9.23;7.97;;;;;;;;;;4979976;28;20245;-86
2021/04/21 00:17:55;;;;;;;12.60;10.00;;;;;;;;;;4979976;28;20673;-85
2021/04/21 00:20:21;;;;;;;10.37;9.20;;;;;;;;;;4997405;28;20543;-85
2021/04/21 00:22:50;;;;;;;11.87;10.67;;;;;;;;;;4979864;28;20684;-85
2021/04/21 00:25:16;;;;;;;10.97;9.87;;;;;;;;;;4979894;28;20680;-85
2021/04/21 00:27:44;;;;;;;11.23;10.13;;;;;;;;;;4992194;28;20706;-85
2021/04/21 00:30:13;;;;;;;14.00;10.33;;;;;;;;;;4976264;28;20207;-85
2021/04/21 00:32:41;;;;;;;10.40;9.40;;;;;;;;;;4976578;28;20214;-85
2021/04/21 00:35:08;;;;;;;11.20;10.10;;;;;;;;;;4992548;28;20187;-85
2021/04/21 00:37:36;;;;;;;9.70;8.83;;;;;;;;;;4976527;28;20254;-85
2021/04/21 00:40:05;;;;;;;11.77;9.40;;;;;;;;;;4992109;28;20291;-86
2021/04/21 00:42:35;;;;;;;10.90;9.70;;;;;;;;;;4976006;28;20211;-85
2021/04/21 00:45:05;;;;;;;10.47;9.00;;;;;;;;;;4992435;28;20210;-84
2021/04/21 00:47:36;;;;;;;12.77;9.67;;;;;;;;;;4976280;28;20655;-85
2021/04/21 00:50:05;;;;;;;10.13;9.13;;;;;;;;;;4992231;28;20202;-84
2021/04/21 00:52:33;;;;;;;10.07;9.07;;;;;;;;;;4992076;28;20207;-85
2021/04/21 00:55:01;;;;;;;10.67;9.53;;;;;;;;;;4975802;28;20214;-85
2021/04/21 00:57:30;;;;;;;17.37;9.00;;;;;;;;;;4977020;28;20187;-84
2021/04/21 00:59:59;;;;;;;11.83;8.87;;;;;;;;;;4976488;28;20219;-84
2021/04/21 01:02:26;;;;;;;16.80;10.70;;;;;;;;;;4975938;28;20207;-84
2021/04/21 01:04:54;;;;;;;13.77;10.33;;;;;;;;;;4976563;28;20249;-84
2021/04/21 01:07:21;;;;;;;15.93;10.43;;;;;;;;;;4975493;28;20206;-84
2021/04/21 01:09:50;;;;;;;15.87;9.97;;;;;;;;;;4974851;28;20211;-84
2021/04/21 01:12:16;;;;;;;16.23;10.07;;;;;;;;;;4991621;28;20254;-84
2021/04/21 01:14:45;;;;;;;12.40;10.60;;;;;;;;;;4976733;28;20530;-84
2021/04/21 01:17:12;;;;;;;14.27;10.73;;;;;;;;;;4974817;28;20254;-84
2021/04/21 01:19:44;;;;;;;17.67;10.40;;;;;;;;;;4974814;28;20557;-87
2021/04/21 01:22:14;;;;;;;14.33;10.53;;;;;;;;;;4975910;28;20222;-85
2021/04/21 01:24:45;;;;;;;13.00;10.73;;;;;;;;;;4991683;28;20218;-84
2021/04/21 01:27:13;;;;;;;12.23;10.73;;;;;;;;;;4978078;28;20237;-84
2021/04/21 01:29:41;;;;;;;12.80;10.27;;;;;;;;;;4978399;28;20272;-84
2021/04/21 01:32:11;;;;;;;11.50;10.30;;;;;;;;;;4994274;28;20669;-83
2021/04/21 01:34:38;;;;;;;13.73;10.20;;;;;;;;;;4977921;28;20189;-83
2021/04/21 01:37:06;;;;;;;13.80;10.47;;;;;;;;;;4978079;28;20268;-83
2021/04/21 01:39:35;;;;;;;11.70;9.77;;;;;;;;;;4977915;28;20662;-84
2021/04/21 01:42:02;;;;;;;11.77;9.80;;;;;;;;;;4993970;28;20229;-83
2021/04/21 01:44:40;;;;;;;12.17;9.83;;;;;;;;;;4993879;28;20206;-83
2021/04/21 01:47:08;;;;;;;13.03;10.33;;;;;;;;;;4993400;28;20205;-84
2021/04/21 01:49:47;;;;;;;12.10;10.20;;;;;;;;;;4977841;28;20569;-83
2021/04/21 01:52:19;;;;;;;12.20;10.30;;;;;;;;;;4977725;28;20205;-83
2021/04/21 01:54:46;;;;;;;10.47;9.43;;;;;;;;;;4977439;28;20205;-81
2021/04/21 01:57:28;;;;;;;13.37;10.00;;;;;;;;;;4993888;28;20673;-82
2021/04/21 01:59:55;;;;;;;11.47;9.90;;;;;;;;;;4977267;28;20732;-82
2021/04/21 02:02:24;;;;;;;10.37;9.33;;;;;;;;;;4977476;28;20202;-82
2021/04/21 02:04:54;;;;;;;11.33;9.40;;;;;;;;;;4977270;28;20252;-84
2021/04/21 02:07:32;;;;;;;11.33;9.60;;;;;;;;;;4993484;28;20198;-84
2021/04/21 02:10:02;;;;;;;12.23;9.53;;;;;;;;;;4977171;28;20190;-82
2021/04/21 02:12:44;;;;;;;13.90;9.70;;;;;;;;;;4977099;28;20209;-82
2021/04/21 02:15:11;;;;;;;12.00;9.50;;;;;;;;;;4993458;28;20902;-82
2021/04/21 02:17:45;;;;;;;13.07;10.23;;;;;;;;;;4977177;28;20605;-82
2021/04/21 02:20:15;;;;;;;11.00;9.57;;;;;;;;;;4975950;28;20252;-82
2021/04/21 02:22:45;;;;;;;12.13;10.17;;;;;;;;;;4976996;28;20204;-82
2021/04/21 02:25:15;;;;;;;11.00;9.90;;;;;;;;;;4976828;28;20272;-84
2021/04/21 02:27:47;;;;;;;10.90;9.67;;;;;;;;;;4973629;28;20297;-84
2021/04/21 02:30:18;;;;;;;9.90;8.90;;;;;;;;;;4975008;28;20207;-84
2021/04/21 02:32:49;;;;;;;10.73;9.60;;;;;;;;;;4974624;28;20241;-82
2021/04/21 02:35:18;;;;;;;10.90;9.07;;;;;;;;;;4973846;28;20666;-81
2021/04/21 02:37:50;;;;;;;10.90;9.33;;;;;;;;;;4989858;28;20234;-82
2021/04/21 02:40:21;;;;;;;11.77;9.57;;;;;;;;;;4989308;28;20206;-81
2021/04/21 02:42:53;;;;;;;10.97;9.87;;;;;;;;;;4989667;28;20206;-81
2021/04/21 02:45:25;;;;;;;12.90;9.93;;;;;;;;;;4974520;28;20175;-81
2021/04/21 02:47:55;;;;;;;12.87;11.20;;;;;;;;;;4989540;28;20663;-81
2021/04/21 02:50:23;;;;;;;11.63;9.97;;;;;;;;;;4973379;28;20206;-82
2021/04/21 02:52:57;;;;;;;12.30;10.43;;;;;;;;;;4974781;28;20190;-82
2021/04/21 02:55:36;;;;;;;14.67;10.40;;;;;;;;;;4973047;28;20206;-82
2021/04/21 02:58:05;;;;;;;12.40;10.93;;;;;;;;;;4973200;28;20237;-81
2021/04/21 03:00:34;;;;;;;11.07;10.00;;;;;;;;;;4973304;28;20197;-82
2021/04/21 03:03:11;;;;;;;12.43;10.63;;;;;;;;;;4973228;28;20187;-82
2021/04/21 03:05:38;;;;;;;13.50;10.70;;;;;;;;;;4973186;28;20230;-81
2021/04/21 03:08:07;;;;;;;11.83;10.50;;;;;;;;;;4972968;28;20202;-81
2021/04/21 03:10:35;;;;;;;12.80;10.47;;;;;;;;;;4973073;28;20210;-82
2021/04/21 03:13:06;;;;;;;11.50;10.30;;;;;;;;;;4973021;28;20253;-82
2021/04/21 03:15:33;;;;;;;11.43;9.47;;;;;;;;;;4973131;28;20721;-82
2021/04/21 03:18:00;;;;;;;11.80;10.17;;;;;;;;;;4989412;28;20199;-82
2021/04/21 03:20:28;;;;;;;10.83;9.73;;;;;;;;;;4973058;28;20191;-82
2021/04/21 03:22:56;;;;;;;15.90;10.73;;;;;;;;;;4989100;28;20206;-82
2021/04/21 03:25:25;;;;;;;13.00;11.07;;;;;;;;;;4974220;28;20202;-81
2021/04/21 03:27:53;;;;;;;13.93;11.20;;;;;;;;;;4984252;28;20257;-82
2021/04/21 03:30:22;;;;;;;12.73;11.20;;;;;;;;;;4976100;28;20764;-82
2021/04/21 03:32:50;;;;;;;12.17;10.23;;;;;;;;;;4996122;28;20665;-82
2021/04/21 03:35:17;;;;;;;12.73;11.47;;;;;;;;;;4979872;28;20293;-82
2021/04/21 03:37:50;;;;;;;13.17;11.87;;;;;;;;;;4979706;28;20252;-82
2021/04/21 03:40:17;;;;;;;14.77;12.10;;;;;;;;;;4997037;28;20218;-83
2021/04/21 03:42:44;;;;;;;15.77;12.53;;;;;;;;;;4979836;28;20186;-82
2021/04/21 03:45:11;;;;;;;15.07;11.43;;;;;;;;;;4996740;28;20233;-82
2021/04/21 03:47:37;;;;;;;12.87;11.30;;;;;;;;;;4996037;28;20204;-82
2021/04/21 03:50:04;;;;;;;11.67;10.47;;;;;;;;;;4997193;28;20183;-82
2021/04/21 03:52:32;;;;;;;12.37;11.07;;;;;;;;;;4979348;28;20194;-81
2021/04/21 03:54:59;;;;;;;12.77;11.43;;;;;;;;;;4996565;28;20225;-81
2021/04/21 03:57:26;;;;;;;14.73;11.37;;;;;;;;;;4979378;28;20237;-81
2021/04/21 03:59:53;;;;;;;12.77;11.47;;;;;;;;;;4996552;28;20182;-81
2021/04/21 04:02:20;;;;;;;13.27;11.93;;;;;;;;;;4996642;28;20638;-80
2021/04/21 04:04:48;;;;;;;15.27;11.67;;;;;;;;;;4995179;28;20194;-81
2021/04/21 04:07:15;;;;;;;12.80;11.30;;;;;;;;;;4995237;28;20228;-80
2021/04/21 04:09:44;;;;;;;14.57;10.50;;;;;;;;;;4978812;28;20194;-80
2021/04/21 04:12:12;;;;;;;13.57;12.17;;;;;;;;;;4978879;28;20277;-80
2021/04/21 04:14:39;;;;;;;13.13;11.47;;;;;;;;;;4978718;28;20233;-81
2021/04/21 04:17:06;;;;;;;12.17;10.97;;;;;;;;;;4995946;28;20286;-80
2021/04/21 04:19:34;;;;;;;12.70;11.40;;;;;;;;;;4978710;28;20666;-81
2021/04/21 04:22:04;;;;;;;12.57;10.73;;;;;;;;;;4978861;28;20205;-80
2021/04/21 04:24:34;;;;;;;12.27;10.97;;;;;;;;;;4995889;28;20213;-83
2021/04/21 04:27:00;;;;;;;12.57;11.27;;;;;;;;;;4995921;28;20724;-83
2021/04/21 04:29:27;;;;;;;14.60;11.63;;;;;;;;;;4978242;28;20264;-81
2021/04/21 04:31:56;;;;;;;14.07;11.30;;;;;;;;;;4994797;28;20198;-82
2021/04/21 04:34:22;;;;;;;12.23;10.37;;;;;;;;;;4978608;28;20784;-81
2021/04/21 04:36:48;;;;;;;13.70;11.07;;;;;;;;;;4978334;28;20245;-81
2021/04/21 04:39:14;;;;;;;12.10;10.73;;;;;;;;;;4996263;28;20213;-83
2021/04/21 04:41:41;;;;;;;12.90;11.20;;;;;;;;;;4978930;28;20229;-80
2021/04/21 04:44:07;;;;;;;12.83;11.30;;;;;;;;;;4977671;28;20506;-82
2021/04/21 04:46:45;;;;;;;13.20;11.77;;;;;;;;;;4978352;28;20214;-82
2021/04/21 04:49:14;;;;;;;13.50;10.83;;;;;;;;;;4978552;28;20202;-80
2021/04/21 04:51:42;;;;;;;11.90;10.63;;;;;;;;;;4978045;28;20205;-81
2021/04/21 04:54:10;;;;;;;12.73;11.23;;;;;;;;;;4995997;28;20276;-83
2021/04/21 04:56:36;;;;;;;13.87;12.37;;;;;;;;;;4978227;28;20233;-79
2021/04/21 04:59:03;;;;;;;15.07;11.70;;;;;;;;;;4995611;28;20217;-85
2021/04/21 05:01:35;;;;;;;13.87;11.83;;;;;;;;;;4978479;28;20206;-82
2021/04/21 05:04:02;;;;;;;12.60;11.30;;;;;;;;;;4996049;28;20214;-85
2021/04/21 05:06:30;;;;;;;12.17;10.80;;;;;;;;;;4979585;28;20244;-84
2021/04/21 05:08:58;;;;;;;13.33;10.77;;;;;;;;;;4997125;28;20182;-81
2021/04/21 05:11:25;;;;;;;12.20;10.97;;;;;;;;;;4996410;28;20179;-81
2021/04/21 05:13:52;;;;;;;14.00;11.43;;;;;;;;;;4979587;28;20205;-86
2021/04/21 05:16:51;;;;;;;13.40;10.77;;;;;;;;;;4995320;28;20214;-86
2021/04/21 05:19:33;;;;;;;17.07;11.40;;;;;;;;;;4938067;29;20211;-81
2021/04/21 05:22:12;;;;;;;14.40;11.80;;;;;;;;;;4954063;29;20714;-82
2021/04/21 05:24:56;;;;;;;15.93;11.93;;;;;;;;;;4978780;28;20256;-80
2021/04/21 05:27:43;;;;;;;12.83;11.53;;;;;;;;;;4974335;28;20234;-83
2021/04/21 05:30:14;;;;;;;14.63;12.20;;;;;;;;;;4974726;28;20670;-84
2021/04/21 05:32:57;;;;;;;15.60;11.60;;;;;;;;;;4975810;28;20199;-81
2021/04/21 05:35:42;;;;;;;12.03;10.83;;;;;;;;;;4974318;28;20852;-82
2021/04/21 05:38:26;;;;;;;16.03;11.87;;;;;;;;;;4975382;28;20593;-82
2021/04/21 05:40:55;;;;;;;14.20;11.23;;;;;;;;;;4974404;28;20206;-81
2021/04/21 05:43:50;;;;;;;13.40;11.70;;;;;;;;;;4974436;28;20261;-81
2021/04/21 05:46:31;;;;;;;12.73;11.17;;;;;;;;;;4975442;28;20186;-82
2021/04/21 05:49:15;;;;;;;14.57;11.73;;;;;;;;;;4974347;28;20210;-81
2021/04/21 05:51:45;;;;;;;16.63;11.67;;;;;;;;;;4974426;28;20195;-84
2021/04/21 05:54:20;;;;;;;16.03;11.83;;;;;;;;;;4974006;28;20206;-82
2021/04/21 05:57:05;;;;;;;17.10;12.83;;;;;;;;;;4973899;28;20246;-82
2021/04/21 05:59:49;;;;;;;13.70;12.20;;;;;;;;;;4974042;28;20210;-82
2021/04/21 06:02:16;;;;;;;15.77;12.60;;;;;;;;;;4955155;28;20616;-81
2021/04/21 06:04:42;;;;;;;16.90;12.47;;;;;;;;;;4973864;28;20733;-81
2021/04/21 06:07:09;;;;;;;15.67;13.10;;;;;;;;;;4973788;28;20186;-82
2021/04/21 06:09:36;;;;;;;14.83;12.00;;;;;;;;;;4973982;28;20737;-80
2021/04/21 06:12:06;;;;;;;13.80;12.30;;;;;;;;;;4974570;28;20195;-86
2021/04/21 06:14:32;;;;;;;19.83;12.13;;;;;;;;;;4973955;28;20206;-82
2021/04/21 06:16:59;;;;;;;13.77;12.33;;;;;;;;;;4974346;28;20261;-82
2021/04/21 06:19:25;;;;;;;14.60;12.33;;;;;;;;;;4974103;28;20768;-82
2021/04/21 06:21:51;;;;;;;15.23;13.07;;;;;;;;;;4973744;28;20191;-80
2021/04/21 06:24:19;;;;;;;15.40;12.53;;;;;;;;;;4973505;28;20234;-82
2021/04/21 06:26:45;;;;;;;15.73;12.90;;;;;;;;;;4974664;28;20265;-81
2021/04/21 06:29:12;;;;;;;13.77;11.30;;;;;;;;;;4976564;28;20201;-81
2021/04/21 06:31:39;;;;;;;14.43;11.63;;;;;;;;;;4994394;28;20284;-82
2021/04/21 06:34:06;;;;;;;15.80;11.97;;;;;;;;;;4976885;28;20224;-82
2021/04/21 06:36:42;;;;;;;14.53;11.87;;;;;;;;;;4994043;28;20178;-83
2021/04/21 06:39:09;;;;;;;21.53;12.00;;;;;;;;;;4976667;28;20815;-82
2021/04/21 06:41:36;;;;;;;14.70;12.87;;;;;;;;;;4992761;28;20543;-82
2021/04/21 06:44:02;;;;;;;13.50;12.10;;;;;;;;;;4976996;28;20560;-83
2021/04/21 06:46:29;;;;;;;16.43;12.07;;;;;;;;;;4994038;28;20247;-83
2021/04/21 06:48:56;;;;;;;13.57;11.43;;;;;;;;;;4976736;28;20264;-83
2021/04/21 06:51:23;;;;;;;17.50;12.67;;;;;;;;;;4992682;28;20233;-82
2021/04/21 06:53:51;;;;;;;13.47;11.67;;;;;;;;;;4993128;28;20193;-82
2021/04/21 06:56:18;;;;;;;15.23;11.53;;;;;;;;;;4976612;28;20225;-81
2021/04/21 06:58:44;;;;;;;15.87;12.37;;;;;;;;;;4993846;28;20735;-79
2021/04/21 07:01:11;;;;;;;16.63;12.20;;;;;;;;;;4976199;28;20256;-81
2021/04/21 07:03:38;;;;;;;15.67;12.63;;;;;;;;;;4976469;28;20202;-80
2021/04/21 07:06:04;;;;;;;17.57;12.77;;;;;;;;;;4994027;28;20532;-81
2021/04/21 07:08:32;;;;;;;16.23;13.17;;;;;;;;;;4979869;28;20205;-81
2021/04/21 07:11:00;;;;;;;22.47;13.57;;;;;;;;;;4997749;28;20178;-81
2021/04/21 07:13:28;;;;;;;14.53;12.87;;;;;;;;;;4997401;28;20217;-80
2021/04/21 07:15:54;;;;;;;17.53;13.97;;;;;;;;;;4997584;28;20210;-81
2021/04/21 07:18:22;;;;;;;15.50;13.40;;;;;;;;;;4996381;28;20311;-80
2021/04/21 07:20:49;;;;;;;16.33;13.07;;;;;;;;;;4997680;28;20580;-81
2021/04/21 07:23:18;;;;;;;17.63;13.33;;;;;;;;;;4997331;28;20241;-80
2021/04/21 07:25:45;;;;;;;13.30;11.90;;;;;;;;;;4979834;28;20205;-80
2021/04/21 07:28:12;;;;;;;17.17;14.57;;;;;;;;;;4976353;28;20273;-81
2021/04/21 07:30:38;;;;;;;15.13;13.53;;;;;;;;;;4976757;28;20209;-80
2021/04/21 07:33:05;;;;;;;15.30;13.10;;;;;;;;;;4976749;28;20654;-80
2021/04/21 07:35:32;;;;;;;22.30;13.77;;;;;;;;;;4976499;28;20234;-81
2021/04/21 07:38:00;;;;;;;17.10;14.47;;;;;;;;;;4976462;28;20242;-80
2021/04/21 07:40:33;;;;;;;18.40;13.50;;;;;;;;;;4977186;28;20678;-81
2021/04/21 07:43:07;;;;;;;20.57;13.97;;;;;;;;;;4976187;28;20249;-81
2021/04/21 07:45:43;;;;;;;17.43;13.83;;;;;;;;;;4976197;28;20566;-81
2021/04/21 07:48:28;;;;;;;17.63;13.67;;;;;;;;;;4976221;28;20203;-81
2021/04/21 07:50:55;;;;;;;18.70;15.00;;;;;;;;;;4975585;28;20744;-81
2021/04/21 07:53:22;;;;;;;20.53;14.50;;;;;;;;;;4976323;28;20603;-82
2021/04/21 07:55:48;;;;;;;18.27;15.10;;;;;;;;;;4976065;28;20207;-82
2021/04/21 07:58:22;;;;;;;19.63;14.60;;;;;;;;;;4976214;28;20258;-81
2021/04/21 08:00:49;;;;;;;16.67;14.53;;;;;;;;;;4975702;28;20210;-81
2021/04/21 08:03:22;;;;;;;18.37;15.33;;;;;;;;;;4977327;28;20250;-82
2021/04/21 08:05:50;;;;;;;21.07;16.00;;;;;;;;;;4977141;28;20218;-81
2021/04/21 08:08:25;;;;;;;19.60;16.07;;;;;;;;;;4975614;28;20674;-81
2021/04/21 08:10:53;;;;;;;21.77;15.40;;;;;;;;;;4977131;28;20210;-81
2021/04/21 08:13:34;;;;;;;18.13;15.27;;;;;;;;;;4977430;28;20215;-81
2021/04/21 08:16:00;;;;;;;19.13;15.37;;;;;;;;;;4975819;28;20562;-81
2021/04/21 08:18:31;;;;;;;18.93;16.07;;;;;;;;;;4975226;28;20308;-81
2021/04/21 08:20:58;;;;;;;18.73;15.50;;;;;;;;;;4975766;28;20599;-82
2021/04/21 08:23:24;;;;;;;17.63;15.73;;;;;;;;;;4975209;28;20884;-81
2021/04/21 08:25:50;;;;;;;17.77;15.23;;;;;;;;;;4976599;28;20254;-81
2021/04/21 08:28:19;;;;;;;21.60;16.53;;;;;;;;;;4978290;28;20264;-81
2021/04/21 08:30:52;;;;;;;20.50;16.30;;;;;;;;;;4996332;28;20214;-81
2021/04/21 08:33:18;;;;;;;18.20;16.37;;;;;;;;;;4978697;28;20206;-82
2021/04/21 08:35:44;;;;;;;22.90;16.13;;;;;;;;;;4978643;28;20217;-81
2021/04/21 08:38:10;;;;;;;19.43;15.40;;;;;;;;;;4994681;28;20249;-81
2021/04/21 08:40:38;;;;;;;18.60;15.93;;;;;;;;;;4995977;28;20182;-82
2021/04/21 08:43:06;;;;;;;22.07;16.43;;;;;;;;;;4978650;28;20691;-82
2021/04/21 08:45:34;;;;;;;19.70;15.80;;;;;;;;;;4978406;28;20206;-82
2021/04/21 08:48:02;;;;;;;16.97;15.00;;;;;;;;;;4978648;28;20558;-82
2021/04/21 08:50:29;;;;;;;21.00;15.37;;;;;;;;;;4994553;28;20232;-82
2021/04/21 08:52:57;;;;;;;20.73;16.20;;;;;;;;;;4996122;28;20236;-83
2021/04/21 08:55:26;;;;;;;21.13;16.30;;;;;;;;;;4995464;28;20214;-82
2021/04/21 08:57:53;;;;;;;18.53;16.30;;;;;;;;;;4995837;28;20236;-82
2021/04/21 09:00:20;;;;;;;23.30;16.40;;;;;;;;;;4994491;28;20232;-82
2021/04/21 09:02:48;;;;;;;18.83;15.83;;;;;;;;;;4978371;28;20217;-81
2021/04/21 09:05:15;;;;;;;21.47;16.17;;;;;;;;;;4994836;28;20646;-85
2021/04/21 09:07:41;;;;;;;18.43;16.10;;;;;;;;;;4995867;28;20340;-85
2021/04/21 09:10:09;;;;;;;17.20;14.43;;;;;;;;;;4978582;28;20209;-85
2021/04/21 09:12:35;;;;;;;21.03;15.70;;;;;;;;;;4978781;28;20261;-84
2021/04/21 09:15:01;;;;;;;19.20;15.13;;;;;;;;;;4978586;28;20252;-84
2021/04/21 09:17:29;;;;;;;20.03;15.73;;;;;;;;;;4995467;28;20783;-84
2021/04/21 09:19:57;;;;;;;22.43;15.80;;;;;;;;;;4994679;28;20650;-85
2021/04/21 09:22:24;;;;;;;22.13;16.27;;;;;;;;;;4978403;28;20202;-85
2021/04/21 09:24:55;;;;;;;21.17;16.70;;;;;;;;;;4978463;28;20666;-84
2021/04/21 09:27:22;;;;;;;19.63;14.93;;;;;;;;;;4995310;28;20258;-85
2021/04/21 09:29:48;;;;;;;16.67;14.43;;;;;;;;;;4977781;28;20197;-83
2021/04/21 09:32:14;;;;;;;18.00;14.47;;;;;;;;;;4961741;28;20206;-83
2021/04/21 09:34:45;;;;;;;18.83;14.80;;;;;;;;;;4978016;28;20573;-83
2021/04/21 09:37:23;;;;;;;20.33;14.17;;;;;;;;;;4977946;28;20256;-83
2021/04/21 09:39:49;;;;;;;20.40;14.47;;;;;;;;;;4977980;28;20198;-84
2021/04/21 09:42:24;;;;;;;16.93;15.13;;;;;;;;;;4978247;28;20720;-86
2021/04/21 09:44:52;;;;;;;16.93;14.60;;;;;;;;;;4978269;28;20193;-89
2021/04/21 09:47:19;;;;;;;16.30;13.80;;;;;;;;;;4995837;28;20217;-84
2021/04/21 09:49:45;;;;;;;18.90;13.20;;;;;;;;;;4995804;28;20221;-88
2021/04/21 09:52:26;;;;;;;17.17;13.97;;;;;;;;;;4996039;28;20189;-87
2021/04/21 09:54:54;;;;;;;16.03;13.63;;;;;;;;;;4975902;28;20268;-85
2021/04/21 09:57:23;;;;;;;15.53;13.30;;;;;;;;;;4977973;28;20246;-87
2021/04/21 09:59:57;;;;;;;17.47;14.07;;;;;;;;;;4993779;28;20202;-82
2021/04/21 10:02:33;;;;;;;15.67;13.43;;;;;;;;;;4993511;28;20546;-84
2021/04/21 10:05:14;;;;;;;17.10;12.70;;;;;;;;;;4977265;28;20206;-83
2021/04/21 10:07:40;;;;;;;19.80;12.20;;;;;;;;;;4976407;28;20201;-83
2021/04/21 10:10:09;;;;;;;15.17;12.20;;;;;;;;;;4977554;28;20205;-82
2021/04/21 10:12:36;;;;;;;20.27;11.80;;;;;;;;;;4993113;28;20704;-84
2021/04/21 10:15:06;;;;;;;17.73;12.97;;;;;;;;;;4977342;28;20202;-84
2021/04/21 10:17:34;;;;;;;21.30;12.13;;;;;;;;;;4977320;28;20273;-83
2021/04/21 10:20:01;;;;;;;14.90;11.47;;;;;;;;;;4977799;28;20252;-86
2021/04/21 10:22:27;;;;;;;14.10;11.63;;;;;;;;;;4977572;28;20220;-86
2021/04/21 10:24:53;;;;;;;15.97;12.13;;;;;;;;;;4977262;28;20198;-83
2021/04/21 10:27:21;;;;;;;16.43;11.50;;;;;;;;;;4973650;28;20242;-84
2021/04/21 10:29:48;;;;;;;19.40;12.53;;;;;;;;;;4990486;28;20222;-85
2021/04/21 10:32:15;;;;;;;15.50;11.07;;;;;;;;;;4974553;28;20207;-86
2021/04/21 10:34:43;;;;;;;15.70;11.23;;;;;;;;;;4974503;28;20199;-87
2021/04/21 10:37:10;;;;;;;15.97;11.50;;;;;;;;;;4974247;28;20330;-87
2021/04/21 10:39:37;;;;;;;16.27;11.37;;;;;;;;;;4975771;28;20186;-87
2021/04/21 10:42:04;;;;;;;18.52;12.48;;;;;;;;;;4974134;28;20722;-87
2021/04/21 10:44:32;;;;;;;17.83;11.20;;;;;;;;;;4975731;28;20217;-84
2021/04/21 10:47:04;;;;;;;19.77;11.23;;;;;;;;;;4974451;28;20199;-85
2021/04/21 10:49:34;;;;;;;13.80;11.30;;;;;;;;;;4974454;28;20257;-88
2021/04/21 10:52:09;;;;;;;13.33;11.93;;;;;;;;;;4973677;28;20191;-81
2021/04/21 10:54:35;;;;;;;18.33;13.20;;;;;;;;;;4973015;28;21044;-81
2021/04/21 10:57:16;;;;;;;14.47;12.27;;;;;;;;;;4972965;28;20261;-83
2021/04/21 11:00:02;;;;;;;16.47;12.50;;;;;;;;;;4972556;28;20226;-81
2021/04/21 11:02:49;;;;;;;11.90;10.70;;;;;;;;;;4989093;28;20226;-82
2021/04/21 11:05:17;;;;;;;13.10;9.50;;;;;;;;;;4970020;28;20206;-82
2021/04/21 11:07:44;;;;;;;10.20;9.00;;;;;;;;;;4973261;28;20725;-82
2021/04/21 11:10:31;;;;;;;8.00;7.20;;;;;;;;;;4973197;28;20199;-82
2021/04/21 11:12:59;;;;;;;9.83;8.53;;;;;;;;;;4973231;28;20195;-82
2021/04/21 11:15:35;;;;;;;11.50;10.20;;;;;;;;;;4974512;28;20219;-81
2021/04/21 11:18:35;;;;;;;15.47;10.47;;;;;;;;;;4972958;28;20705;-82
2021/04/21 11:21:03;;;;;;;12.17;9.50;;;;;;;;;;4974149;28;20686;-83
2021/04/21 11:24:00;;;;;;;12.20;10.03;;;;;;;;;;4974239;28;20713;-82
2021/04/21 11:26:36;;;;;;;12.47;9.73;;;;;;;;;;4933671;29;20230;-82
2021/04/21 11:29:03;;;;;;;10.97;9.87;;;;;;;;;;4965611;28;20202;-84
2021/04/21 11:31:45;;;;;;;11.53;9.47;;;;;;;;;;4974455;28;20186;-82
2021/04/21 11:34:18;;;;;;;10.70;9.70;;;;;;;;;;4956238;28;20203;-83
2021/04/21 11:36:49;;;;;;;10.53;9.43;;;;;;;;;;4974249;28;20190;-83
2021/04/21 11:39:15;;;;;;;10.53;9.43;;;;;;;;;;4956597;28;20273;-82
2021/04/21 11:41:42;;;;;;;9.67;8.70;;;;;;;;;;4956890;28;20718;-82
2021/04/21 11:44:09;;;;;;;9.30;8.50;;;;;;;;;;4956956;28;20681;-83
2021/04/21 11:46:53;;;;;;;9.60;7.60;;;;;;;;;;4974571;28;20242;-83
2021/04/21 11:49:34;;;;;;;8.50;7.70;;;;;;;;;;4963802;28;20578;-82
2021/04/21 11:52:01;;;;;;;8.87;8.07;;;;;;;;;;4972391;28;20206;-82
2021/04/21 11:54:27;;;;;;;9.57;8.43;;;;;;;;;;4977412;28;20187;-83
2021/04/21 11:56:57;;;;;;;10.23;9.23;;;;;;;;;;4960130;28;20199;-83
2021/04/21 11:59:24;;;;;;;11.43;10.10;;;;;;;;;;4960115;28;20231;-82
2021/04/21 12:01:50;;;;;;;11.57;9.10;;;;;;;;;;4960300;28;20555;-83
2021/04/21 12:04:18;;;;;;;10.37;9.33;;;;;;;;;;4959926;28;20202;-82
2021/04/21 12:06:44;;;;;;;14.83;9.40;;;;;;;;;;4977371;28;20570;-82
2021/04/21 12:09:11;;;;;;;9.67;8.77;;;;;;;;;;4977506;28;20183;-82
2021/04/21 12:11:37;;;;;;;9.27;8.40;;;;;;;;;;4977426;28;20241;-85
2021/04/21 12:14:04;;;;;;;9.23;7.97;;;;;;;;;;4976297;28;20554;-85
2021/04/21 12:16:33;;;;;;;9.70;8.03;;;;;;;;;;4959645;28;20573;-82
2021/04/21 12:19:00;;;;;;;9.37;8.10;;;;;;;;;;4959156;28;20254;-83
2021/04/21 12:21:27;;;;;;;10.00;7.90;;;;;;;;;;4959780;28;20191;-83
2021/04/21 12:23:54;;;;;;;9.17;7.80;;;;;;;;;;4977070;28;20187;-84
2021/04/21 12:26:22;;;;;;;8.57;7.73;;;;;;;;;;4959889;28;20219;-85
2021/04/21 12:28:49;;;;;;;12.20;8.68;;;;;;;;;;4977158;28;20233;-83
2021/04/21 12:31:15;;;;;;;8.10;7.37;;;;;;;;;;4995339;28;20739;-85
2021/04/21 12:33:42;;;;;;;7.72;7.03;;;;;;;;;;4996441;28;20175;-85
2021/04/21 12:36:08;;;;;;;8.03;7.33;;;;;;;;;;4994298;28;20244;-83
2021/04/21 12:38:35;;;;;;;7.07;6.47;;;;;;;;;;4994580;28;20257;-86
2021/04/21 12:41:03;;;;;;;7.53;6.80;;;;;;;;;;4995340;28;20638;-86
2021/04/21 12:43:31;;;;;;;10.57;6.43;;;;;;;;;;4996025;28;20248;-86
2021/04/21 12:46:14;;;;;;;7.20;6.20;;;;;;;;;;4996190;28;20218;-82
2021/04/21 12:48:47;;;;;;;6.47;5.97;;;;;;;;;;4994800;28;20215;-82
2021/04/21 12:51:23;;;;;;;7.00;6.43;;;;;;;;;;4995754;28;20260;-83
2021/04/21 12:53:49;;;;;;;6.30;5.70;;;;;;;;;;4978652;28;20206;-83
2021/04/21 12:56:16;;;;;;;7.07;6.37;;;;;;;;;;4994988;28;20574;-84
2021/04/21 12:58:45;;;;;;;10.00;6.50;;;;;;;;;;4978040;28;20241;-83
2021/04/21 13:01:13;;;;;;;8.60;6.93;;;;;;;;;;4994573;28;20197;-83
2021/04/21 13:03:39;;;;;;;6.73;6.23;;;;;;;;;;4994333;28;20312;-83
2021/04/21 13:06:06;;;;;;;7.50;6.90;;;;;;;;;;4993655;28;20561;-83
2021/04/21 13:08:33;;;;;;;7.30;6.68;;;;;;;;;;4978127;28;20185;-83
2021/04/21 13:11:00;;;;;;;6.57;5.97;;;;;;;;;;4994460;28;20190;-83
2021/04/21 13:13:27;;;;;;;8.60;6.23;;;;;;;;;;4977906;28;20190;-84
2021/04/21 13:15:54;;;;;;;10.80;7.95;;;;;;;;;;4995790;28;20182;-83
2021/04/21 13:18:20;;;;;;;8.47;7.23;;;;;;;;;;4993919;28;20236;-83
2021/04/21 13:20:48;;;;;;;8.20;7.40;;;;;;;;;;4994284;28;20240;-82
2021/04/21 13:23:16;;;;;;;8.73;6.95;;;;;;;;;;4993622;28;20272;-84
2021/04/21 13:25:53;;;;;;;11.43;7.95;;;;;;;;;;4995313;28;20527;-84
2021/04/21 13:28:20;;;;;;;8.90;8.00;;;;;;;;;;4991004;28;20226;-83
2021/04/21 13:31:01;;;;;;;9.15;7.90;;;;;;;;;;4990766;28;20190;-83
2021/04/21 13:33:28;;;;;;;9.50;7.32;;;;;;;;;;4990454;28;20210;-83
2021/04/21 13:35:54;;;;;;;8.52;7.70;;;;;;;;;;4975667;28;20178;-82
2021/04/21 13:38:20;;;;;;;7.65;6.60;;;;;;;;;;4990099;28;20801;-83
2021/04/21 13:40:47;;;;;;;8.57;6.80;;;;;;;;;;4975737;28;20243;-84
2021/04/21 13:43:13;;;;;;;7.05;6.03;;;;;;;;;;4974652;28;20210;-85
2021/04/21 13:45:39;;;;;;;9.55;5.78;;;;;;;;;;4990531;28;20258;-86
2021/04/21 13:48:05;;;;;;;6.32;5.30;;;;;;;;;;4974792;28;20231;-85
2021/04/21 13:50:32;;;;;;;42.30;5.45;;;;;;;;;;4990709;28;20257;-84
2021/04/21 13:52:58;;;;;;;5.15;4.63;;;;;;;;;;4975693;28;20210;-84
2021/04/21 13:55:25;;;;;;;44.67;4.95;;;;;;;;;;4974363;28;20191;-85
2021/04/21 13:57:51;;;;;;;4.25;3.92;;;;;;;;;;4990093;28;20246;-85
2021/04/21 14:00:17;;;;;;;4.38;3.97;;;;;;;;;;4990355;28;20191;-83
2021/04/21 14:02:44;;;;;;;5.55;5.13;;;;;;;;;;4989957;28;20206;-84
2021/04/21 14:05:10;;;;;;;6.47;4.70;;;;;;;;;;4989808;28;20765;-84
2021/04/21 14:07:37;;;;;;;5.15;4.22;;;;;;;;;;4990462;28;20647;-80
2021/04/21 14:10:04;;;;;;;5.53;4.00;;;;;;;;;;4989347;28;20697;-79
2021/04/21 14:12:30;;;;;;;7.03;4.43;;;;;;;;;;4989786;28;20256;-78
2021/04/21 14:14:57;;;;;;;6.65;4.50;;;;;;;;;;4975060;28;20518;-78
2021/04/21 14:17:24;;;;;;;4.63;4.32;;;;;;;;;;4974661;28;20254;-79
2021/04/21 14:19:50;;;;;;;4.93;4.55;;;;;;;;;;4989828;28;20245;-79
2021/04/21 14:22:17;;;;;;;6.53;4.78;;;;;;;;;;4989929;28;20253;-81
2021/04/21 14:24:44;;;;;;;5.47;4.97;;;;;;;;;;4975055;28;20242;-79
2021/04/21 14:27:10;;;;;;;6.25;5.75;;;;;;;;;;4978711;28;20716;-77
2021/04/21 14:29:36;;;;;;;5.88;5.38;;;;;;;;;;4994161;28;20241;-78
2021/04/21 14:32:03;;;;;;;5.60;5.20;;;;;;;;;;4994038;28;20669;-79
2021/04/21 14:34:29;;;;;;;6.32;5.72;;;;;;;;;;4992318;28;20744;-83
2021/04/21 14:36:55;;;;;;;6.13;5.53;;;;;;;;;;4976634;28;20249;-81